Pagrindinis puslapis
METAR-TAF:

METAR-TAF

Oro uostai :

Avilesas, Ispanija

platuma: 43-33N, ilguma: 006-02W, Aukštis: 127 m

Dabartinis oras

Ataskaita buvo paskelbta 23 minutes, ne 12:00 UTC
Vėjas 5 kt iš Vakarų/Šiaurės Vakarų, svyruoja nuo Vakarų ir Šiaurės/Šiaurės Vakarų
Temperatūra 12°C
Drėgmė 82%
Slėgis 1017 hPa
Matomumas 10 km arba daugiau
Mažai debesys ne aukštis 8400 ft

METAR: LEAS 251200Z 29005KT 270V330 9999 FEW084 12/09 Q1017 NOSIG

Laikas: 13:23 (12:23 UTC)

Prognozė

Ataskaita buvo paskelbta 4 valandos ir 23 minutes, ne 08:00 UTC
Prognozė galioja nuo 25 metu 09 UTC su 26 metu 09 UTC
Vėjas 4 kt nuo kintamojo kryptimis
Matomumas 10 km arba daugiau
Išsisklaidę debesys ne aukštis 5000 ft
Tikimybė 30% :
Laikinai
nuo 25 metu 15 UTC su 25 metu 24 UTC
Matomumas: 3000 m
Su prošvaistėmis ne aukštis 1200 ft
lietus

TAF: LEAS 250800Z 2509/2609 VRB04KT 9999 SCT050 TX12/2513Z TN05/2606Z PROB30 TEMPO 2515/2524 3000 -RA BKN012

Orai ataskaitas ir orų prognozės (METAR, TAF).

turimą stotys yra geltonos ir raudonos taškus žemėlapyje.

Perkelti pele per norėdami pamatyti stoties vardą.

Tada spustelėkite, norėdami matyti oro stebėjimo ir prognozės.

Norėdami pakeisti žemėlapį: spustelėkite ant žalios mygtukų su juodo kryžiaus žemyn,; žalią mygtuką su brūkšneliu, jei norite nutolinti; arba žalių rodyklių gretimoms žemėlapius.


METAR-TAF: